createdAt,value
2018-09-21T00:00:12.653Z,17.90
2018-09-21T00:02:41.101Z,17.80
2018-09-21T00:05:09.932Z,17.80
2018-09-21T00:07:38.389Z,17.80
2018-09-21T00:10:06.863Z,17.70
2018-09-21T00:12:35.315Z,17.70
2018-09-21T00:15:03.867Z,17.70
2018-09-21T00:17:32.302Z,17.70
2018-09-21T00:20:00.782Z,17.80
2018-09-21T00:22:29.219Z,17.80
2018-09-21T00:24:57.695Z,17.80
2018-09-21T00:27:26.151Z,17.80
2018-09-21T00:29:54.642Z,17.70
2018-09-21T00:32:23.110Z,17.70
2018-09-21T00:34:51.998Z,17.70
2018-09-21T00:37:20.686Z,17.70
2018-09-21T00:39:49.147Z,17.70
2018-09-21T00:42:17.590Z,17.70
2018-09-21T00:44:46.070Z,17.70
2018-09-21T00:47:14.756Z,17.70
2018-09-21T00:49:43.213Z,17.60
2018-09-21T00:52:11.710Z,17.60
2018-09-21T00:54:40.186Z,17.60
2018-09-21T00:57:08.660Z,17.60
2018-09-21T00:59:37.109Z,17.60
2018-09-21T01:02:05.586Z,17.60
2018-09-21T01:04:39.218Z,17.60
2018-09-21T01:07:07.729Z,17.70
2018-09-21T01:09:36.214Z,17.80
2018-09-21T01:12:04.674Z,17.80
2018-09-21T01:14:33.117Z,17.80
2018-09-21T01:17:01.614Z,17.80
2018-09-21T01:19:30.074Z,17.80
2018-09-21T01:21:58.562Z,17.90
2018-09-21T01:24:27.001Z,17.90
2018-09-21T01:26:55.462Z,17.90
2018-09-21T01:29:23.925Z,17.80
2018-09-21T01:31:52.383Z,17.80
2018-09-21T01:34:20.871Z,17.80
2018-09-21T01:36:49.280Z,17.90
2018-09-21T01:39:17.748Z,17.90
2018-09-21T01:41:46.193Z,17.80
2018-09-21T01:44:14.653Z,17.80
2018-09-21T01:46:43.077Z,17.80
2018-09-21T01:49:11.550Z,17.80
2018-09-21T01:51:39.994Z,17.80
2018-09-21T01:54:08.461Z,17.80
2018-09-21T01:56:36.921Z,17.80
2018-09-21T01:59:05.706Z,17.80
2018-09-21T02:01:34.174Z,17.80
2018-09-21T02:04:02.610Z,17.80
2018-09-21T02:06:31.065Z,17.80
2018-09-21T02:08:59.494Z,17.70
2018-09-21T02:11:27.969Z,17.70
2018-09-21T02:13:56.441Z,17.60
2018-09-21T02:16:24.920Z,17.70
2018-09-21T02:18:53.409Z,17.70
2018-09-21T02:21:21.857Z,17.70
2018-09-21T02:23:50.361Z,17.60
2018-09-21T02:26:18.823Z,17.60
2018-09-21T02:28:47.349Z,17.60
2018-09-21T02:31:15.831Z,17.50
2018-09-21T02:33:44.310Z,17.50
2018-09-21T02:36:13.099Z,17.40
2018-09-21T02:38:41.541Z,17.30
2018-09-21T02:41:10.005Z,17.30
2018-09-21T02:43:38.471Z,17.30
2018-09-21T02:46:06.951Z,17.20
2018-09-21T02:48:35.476Z,17.20
2018-09-21T02:51:03.939Z,17.10
2018-09-21T02:53:32.481Z,17.10
2018-09-21T02:56:00.954Z,17.10
2018-09-21T02:58:29.452Z,17.00
2018-09-21T03:00:58.068Z,17.00
2018-09-21T03:03:26.416Z,17.00
2018-09-21T03:05:54.910Z,17.00
2018-09-21T03:08:23.403Z,17.10
2018-09-21T03:10:51.891Z,17.00
2018-09-21T03:13:20.464Z,17.00
2018-09-21T03:15:52.827Z,17.00
2018-09-21T03:18:21.326Z,17.00
2018-09-21T03:20:49.832Z,17.00
2018-09-21T03:23:18.261Z,16.90
2018-09-21T03:25:46.774Z,16.90
2018-09-21T03:28:15.185Z,17.00
2018-09-21T03:30:43.648Z,17.00
2018-09-21T03:33:12.070Z,17.00
2018-09-21T03:35:40.521Z,16.90
2018-09-21T03:38:08.941Z,17.00
2018-09-21T03:40:37.386Z,17.10
2018-09-21T03:43:06.882Z,17.10
2018-09-21T03:45:35.302Z,17.20
2018-09-21T03:48:03.749Z,17.20
2018-09-21T03:50:32.165Z,17.20
2018-09-21T03:53:00.605Z,17.20
2018-09-21T03:55:29.279Z,17.20
2018-09-21T03:57:57.735Z,17.20
2018-09-21T04:00:26.348Z,17.20
2018-09-21T04:02:54.780Z,17.20
2018-09-21T04:05:23.230Z,17.20
2018-09-21T04:07:51.645Z,17.10
2018-09-21T04:10:20.093Z,17.10
2018-09-21T04:12:48.515Z,17.10
2018-09-21T04:15:16.978Z,17.20
2018-09-21T04:17:46.269Z,17.10
2018-09-21T04:20:14.706Z,17.10
2018-09-21T04:22:47.345Z,17.10
2018-09-21T04:25:15.954Z,17.00
2018-09-21T04:27:44.398Z,17.00
2018-09-21T04:30:12.821Z,17.00
2018-09-21T04:32:41.268Z,17.00
2018-09-21T04:35:09.764Z,17.00
2018-09-21T04:37:38.217Z,17.00
2018-09-21T04:40:06.675Z,17.10
2018-09-21T04:42:35.089Z,17.10
2018-09-21T04:45:03.545Z,17.10
2018-09-21T04:47:31.963Z,17.10
2018-09-21T04:50:00.402Z,17.20
2018-09-21T04:52:28.918Z,17.20
2018-09-21T04:54:57.294Z,17.20
2018-09-21T04:57:25.742Z,17.30
2018-09-21T04:59:54.206Z,17.20
2018-09-21T05:02:22.649Z,17.30
2018-09-21T05:04:51.074Z,17.30
2018-09-21T05:07:19.538Z,17.30
2018-09-21T05:09:47.954Z,17.40
2018-09-21T05:12:16.666Z,17.50
2018-09-21T05:14:45.101Z,17.50
2018-09-21T05:17:13.625Z,17.60
2018-09-21T05:19:43.048Z,17.60
2018-09-21T05:22:11.470Z,17.70
2018-09-21T05:24:40.754Z,17.70
2018-09-21T05:27:09.198Z,17.70
2018-09-21T05:29:37.647Z,17.80
2018-09-21T05:32:07.068Z,17.80
2018-09-21T05:34:35.608Z,17.80
2018-09-21T05:37:04.079Z,17.70
2018-09-21T05:39:32.533Z,17.70
2018-09-21T05:42:00.977Z,17.70
2018-09-21T05:44:29.413Z,17.80
2018-09-21T05:46:57.846Z,17.90
2018-09-21T05:49:26.277Z,17.90
2018-09-21T05:51:54.698Z,18.00
2018-09-21T05:54:23.142Z,18.10
2018-09-21T05:56:51.633Z,18.20
2018-09-21T05:59:20.094Z,18.30
2018-09-21T06:01:48.556Z,18.30
2018-09-21T06:04:16.998Z,18.40
2018-09-21T06:06:45.442Z,18.40
2018-09-21T06:09:14.342Z,18.50
2018-09-21T06:11:43.574Z,18.50
2018-09-21T06:14:12.753Z,18.50
2018-09-21T06:16:41.234Z,18.50
2018-09-21T06:19:09.673Z,18.50
2018-09-21T06:21:38.097Z,18.50
2018-09-21T06:24:06.642Z,18.40
2018-09-21T06:26:35.058Z,18.50
2018-09-21T06:29:03.821Z,18.50
2018-09-21T06:31:32.580Z,18.50
2018-09-21T06:34:01.057Z,18.60
2018-09-21T06:36:30.163Z,18.70
2018-09-21T06:38:58.647Z,18.80
2018-09-21T06:41:27.073Z,19.00
2018-09-21T06:43:55.507Z,19.10
2018-09-21T06:46:23.970Z,19.20
2018-09-21T06:48:52.423Z,19.40
2018-09-21T06:51:20.894Z,19.60
2018-09-21T06:53:49.326Z,19.70
2018-09-21T06:56:17.749Z,19.80
2018-09-21T06:58:46.170Z,19.90
2018-09-21T07:01:14.725Z,19.90
2018-09-21T07:03:43.113Z,19.90
2018-09-21T07:06:11.542Z,20.00
2018-09-21T07:08:39.992Z,20.00
2018-09-21T07:11:08.460Z,20.00
2018-09-21T07:13:36.891Z,20.00
2018-09-21T07:16:05.343Z,20.20
2018-09-21T07:18:33.825Z,20.20
2018-09-21T07:21:02.246Z,20.40
2018-09-21T07:23:30.894Z,20.60
2018-09-21T07:25:59.321Z,20.80
2018-09-21T07:28:27.753Z,21.10
2018-09-21T07:30:56.213Z,21.30
2018-09-21T07:33:24.623Z,21.50
2018-09-21T07:35:53.096Z,21.80
2018-09-21T07:38:21.514Z,22.00
2018-09-21T07:40:49.942Z,22.10
2018-09-21T07:43:18.369Z,22.30
2018-09-21T07:45:46.798Z,22.50
2018-09-21T07:48:15.199Z,22.60
2018-09-21T07:50:43.638Z,22.60
2018-09-21T07:53:12.071Z,22.50
2018-09-21T07:55:40.489Z,22.50
2018-09-21T07:58:08.926Z,22.60
2018-09-21T08:00:37.333Z,22.60
2018-09-21T08:03:05.813Z,22.70
2018-09-21T08:05:35.350Z,22.80
2018-09-21T08:08:05.290Z,23.00
2018-09-21T08:10:33.737Z,23.00
2018-09-21T08:13:02.463Z,23.10
2018-09-21T08:15:31.562Z,23.00
2018-09-21T08:17:59.984Z,23.00
2018-09-21T08:20:28.485Z,23.00
2018-09-21T08:22:56.997Z,23.00
2018-09-21T08:25:25.667Z,23.00
2018-09-21T08:27:54.094Z,23.10
2018-09-21T08:30:22.557Z,23.20
2018-09-21T08:32:50.963Z,23.20
2018-09-21T08:35:19.405Z,23.10
2018-09-21T08:37:47.823Z,23.20
2018-09-21T08:40:16.293Z,23.10
2018-09-21T08:42:44.785Z,23.10
2018-09-21T08:45:13.221Z,23.00
2018-09-21T08:47:41.670Z,22.90
2018-09-21T08:50:10.598Z,22.90
2018-09-21T08:52:39.162Z,22.90
2018-09-21T08:55:07.631Z,23.00
2018-09-21T08:57:36.075Z,23.10
2018-09-21T09:00:04.941Z,23.40
2018-09-21T09:02:33.387Z,23.40
2018-09-21T09:05:01.858Z,23.50
2018-09-21T09:07:30.261Z,23.70
2018-09-21T09:09:58.707Z,23.90
2018-09-21T09:12:27.135Z,24.10
2018-09-21T09:14:55.586Z,24.10
2018-09-21T09:17:24.059Z,24.30
2018-09-21T09:19:52.528Z,24.30
2018-09-21T09:22:20.941Z,24.20
2018-09-21T09:24:49.400Z,24.30
2018-09-21T09:27:17.850Z,24.30
2018-09-21T09:29:46.299Z,24.40
2018-09-21T09:32:14.706Z,24.20
2018-09-21T09:34:43.130Z,24.20
2018-09-21T09:37:11.591Z,24.10
2018-09-21T09:39:40.369Z,24.10
2018-09-21T09:42:08.813Z,24.00
2018-09-21T09:44:37.239Z,24.00
2018-09-21T09:47:06.061Z,24.10
2018-09-21T09:49:34.490Z,24.20
2018-09-21T09:52:02.925Z,24.40
2018-09-21T09:54:31.338Z,24.70
2018-09-21T09:56:59.782Z,25.10
2018-09-21T09:59:28.230Z,25.30
2018-09-21T10:01:56.886Z,25.50
2018-09-21T10:04:25.340Z,25.30
2018-09-21T10:06:53.750Z,25.10
2018-09-21T10:09:22.177Z,25.10
2018-09-21T10:11:50.602Z,25.10
2018-09-21T10:14:19.070Z,25.10
2018-09-21T10:16:47.528Z,25.10
2018-09-21T10:19:16.044Z,25.00
2018-09-21T10:21:44.467Z,25.00
2018-09-21T10:24:13.024Z,24.90
2018-09-21T10:26:41.370Z,24.80
2018-09-21T10:29:09.806Z,24.80
2018-09-21T10:31:38.281Z,24.90
2018-09-21T10:34:06.724Z,24.90
2018-09-21T10:36:35.323Z,25.00
2018-09-21T10:39:04.950Z,24.90
2018-09-21T10:41:33.391Z,24.90
2018-09-21T10:44:01.797Z,24.90
2018-09-21T10:46:30.249Z,25.00
2018-09-21T10:48:58.669Z,25.10
2018-09-21T10:51:27.120Z,25.10
2018-09-21T10:53:55.569Z,25.10
2018-09-21T10:56:23.982Z,25.20
2018-09-21T10:58:52.705Z,25.30
2018-09-21T11:01:21.135Z,25.50
2018-09-21T11:03:49.566Z,25.40
2018-09-21T11:06:17.965Z,25.40
2018-09-21T11:08:46.409Z,25.30
2018-09-21T11:11:14.825Z,25.20
2018-09-21T11:13:43.237Z,25.00
2018-09-21T11:16:11.759Z,24.80
2018-09-21T11:18:40.186Z,24.70
2018-09-21T11:21:08.874Z,24.70
2018-09-21T11:23:37.304Z,24.60
2018-09-21T11:26:05.760Z,24.40
2018-09-21T11:28:34.169Z,24.40
2018-09-21T11:31:02.642Z,24.40
2018-09-21T11:33:31.118Z,24.40
2018-09-21T11:36:00.178Z,24.30
2018-09-21T11:38:28.627Z,24.30
2018-09-21T11:40:57.118Z,24.20
2018-09-21T11:43:25.519Z,24.10
2018-09-21T11:45:53.954Z,24.10
2018-09-21T11:48:22.465Z,24.00
2018-09-21T11:50:50.910Z,23.90
2018-09-21T11:53:19.362Z,23.80
2018-09-21T11:55:47.819Z,23.70
2018-09-21T11:58:16.230Z,23.70
2018-09-21T12:00:44.672Z,23.80
2018-09-21T12:03:13.121Z,23.90
2018-09-21T12:05:41.578Z,24.00
2018-09-21T12:08:10.006Z,24.00
2018-09-21T12:10:38.531Z,24.00
2018-09-21T12:13:06.925Z,24.00
2018-09-21T12:15:35.395Z,24.10
2018-09-21T12:18:03.867Z,24.10
2018-09-21T12:20:32.641Z,24.00
2018-09-21T12:23:01.718Z,24.00
2018-09-21T12:25:31.228Z,24.10
2018-09-21T12:27:59.690Z,24.30
2018-09-21T12:30:28.243Z,24.40
2018-09-21T12:32:56.635Z,24.50
2018-09-21T12:35:25.145Z,24.70
2018-09-21T12:37:53.581Z,24.60
2018-09-21T12:40:22.019Z,24.60
2018-09-21T12:42:50.454Z,24.60
2018-09-21T12:45:18.913Z,24.50
2018-09-21T12:47:47.370Z,24.40
2018-09-21T12:50:15.882Z,24.40
2018-09-21T12:52:44.300Z,24.30
2018-09-21T12:55:13.646Z,24.20
2018-09-21T12:57:42.128Z,24.00
2018-09-21T13:00:11.001Z,23.90
2018-09-21T13:02:39.813Z,23.70
2018-09-21T13:05:08.383Z,23.60
2018-09-21T13:07:37.015Z,23.40
2018-09-21T13:10:05.653Z,23.20
2018-09-21T13:12:34.165Z,23.30
2018-09-21T13:15:03.223Z,23.20
2018-09-21T13:17:31.706Z,23.30
2018-09-21T13:20:00.145Z,23.50
2018-09-21T13:22:28.633Z,23.70
2018-09-21T13:24:57.059Z,23.70
2018-09-21T13:27:25.498Z,23.60
2018-09-21T13:29:53.950Z,23.70
2018-09-21T13:32:22.450Z,23.60
2018-09-21T13:34:50.871Z,23.50
2018-09-21T13:37:19.309Z,23.50
2018-09-21T13:39:47.761Z,23.60
2018-09-21T13:42:16.223Z,23.60
2018-09-21T13:44:44.682Z,23.60
2018-09-21T13:47:13.469Z,23.50
2018-09-21T13:49:41.870Z,23.30
2018-09-21T13:52:10.313Z,23.20
2018-09-21T13:54:38.736Z,22.90
2018-09-21T13:57:07.241Z,22.80
2018-09-21T13:59:35.703Z,22.80
2018-09-21T14:02:04.157Z,22.80
2018-09-21T14:04:32.598Z,22.90
2018-09-21T14:07:01.099Z,23.00
2018-09-21T14:09:29.576Z,22.90
2018-09-21T14:11:58.054Z,22.90
2018-09-21T14:14:26.518Z,22.80
2018-09-21T14:16:54.990Z,22.80
2018-09-21T14:19:23.473Z,22.80
2018-09-21T14:21:51.939Z,22.80
2018-09-21T14:24:20.396Z,22.80
2018-09-21T14:26:48.840Z,22.80
2018-09-21T14:29:17.278Z,22.80
2018-09-21T14:31:45.751Z,22.80
2018-09-21T14:34:14.206Z,22.80
2018-09-21T14:36:42.723Z,22.80
2018-09-21T14:39:12.017Z,22.80
2018-09-21T14:41:40.608Z,22.80
2018-09-21T14:44:09.061Z,22.80
2018-09-21T14:46:37.990Z,22.80
2018-09-21T14:49:06.461Z,22.80
2018-09-21T14:51:34.946Z,22.90
2018-09-21T14:54:03.402Z,22.80
2018-09-21T14:56:31.844Z,22.70
2018-09-21T14:59:00.386Z,22.60
2018-09-21T15:01:28.850Z,22.50
2018-09-21T15:03:57.319Z,22.40
2018-09-21T15:06:25.771Z,22.30
2018-09-21T15:08:54.225Z,22.30
2018-09-21T15:11:22.727Z,22.20
2018-09-21T15:13:52.589Z,22.20
2018-09-21T15:16:21.185Z,22.20
2018-09-21T15:18:49.622Z,22.10
2018-09-21T15:21:18.492Z,22.20
2018-09-21T15:23:46.941Z,22.10
2018-09-21T15:26:15.400Z,22.20
2018-09-21T15:28:43.809Z,22.20
2018-09-21T15:31:12.238Z,22.10
2018-09-21T15:33:40.675Z,22.10
2018-09-21T15:36:09.138Z,22.00
2018-09-21T15:38:37.561Z,21.80
2018-09-21T15:41:06.066Z,21.30
2018-09-21T15:43:34.646Z,20.70
2018-09-21T15:46:03.026Z,20.20
2018-09-21T15:48:31.466Z,19.90
2018-09-21T15:50:59.983Z,19.70
2018-09-21T15:53:28.509Z,19.60
2018-09-21T15:55:57.045Z,19.40
2018-09-21T15:58:25.597Z,19.10
2018-09-21T16:00:54.122Z,18.30
2018-09-21T16:03:22.563Z,17.60
2018-09-21T16:05:51.030Z,17.30
2018-09-21T16:08:19.478Z,16.80
2018-09-21T16:10:47.942Z,16.10
2018-09-21T16:13:16.649Z,15.80
2018-09-21T16:15:45.104Z,15.80
2018-09-21T16:18:14.735Z,15.70
2018-09-21T16:20:43.291Z,15.40
2018-09-21T16:23:11.766Z,15.40
2018-09-21T16:25:41.257Z,15.30
2018-09-21T16:28:10.233Z,15.20
2018-09-21T16:30:38.798Z,14.90
2018-09-21T16:33:07.282Z,14.90
2018-09-21T16:35:37.726Z,14.90
2018-09-21T16:38:06.214Z,14.90
2018-09-21T16:40:34.670Z,14.80
2018-09-21T16:43:03.122Z,14.90
2018-09-21T16:45:31.578Z,14.90
2018-09-21T16:48:01.265Z,14.90
2018-09-21T16:50:32.865Z,14.80
2018-09-21T16:53:01.346Z,14.70
2018-09-21T16:55:29.805Z,14.80
2018-09-21T16:57:58.262Z,14.90
2018-09-21T17:00:26.696Z,15.00
2018-09-21T17:02:55.130Z,15.00
2018-09-21T17:05:23.588Z,14.90
2018-09-21T17:07:52.035Z,14.90
2018-09-21T17:10:20.481Z,14.90
2018-09-21T17:12:48.958Z,14.70
2018-09-21T17:15:17.430Z,14.70
2018-09-21T17:17:45.918Z,14.80
2018-09-21T17:20:14.385Z,14.80
2018-09-21T17:22:42.846Z,14.80
2018-09-21T17:25:11.318Z,14.70
2018-09-21T17:27:39.877Z,14.80
2018-09-21T17:30:08.417Z,14.70
2018-09-21T17:32:36.872Z,14.70
2018-09-21T17:35:05.395Z,14.80
2018-09-21T17:37:33.855Z,14.90
2018-09-21T17:40:02.922Z,14.70
2018-09-21T17:42:31.717Z,14.60
2018-09-21T17:45:00.141Z,14.60
2018-09-21T17:47:28.629Z,14.50
2018-09-21T17:49:57.294Z,14.40
2018-09-21T17:52:25.816Z,14.50
2018-09-21T17:54:54.255Z,14.40
2018-09-21T17:57:22.741Z,14.40
2018-09-21T17:59:51.198Z,14.40
2018-09-21T18:02:19.942Z,14.30
2018-09-21T18:04:48.465Z,14.20
2018-09-21T18:07:19.626Z,14.20
2018-09-21T18:09:49.415Z,14.10
2018-09-21T18:12:17.883Z,14.10
2018-09-21T18:14:46.338Z,14.10
2018-09-21T18:17:14.843Z,13.90
2018-09-21T18:19:43.289Z,13.90
2018-09-21T18:22:12.322Z,13.90
2018-09-21T18:24:41.184Z,13.90
2018-09-21T18:27:10.494Z,13.80
2018-09-21T18:29:39.082Z,13.90
2018-09-21T18:32:07.673Z,13.80
2018-09-21T18:34:36.147Z,13.70
2018-09-21T18:37:04.694Z,13.70
2018-09-21T18:39:33.221Z,13.80
2018-09-21T18:42:01.991Z,13.70
2018-09-21T18:44:32.002Z,13.70
2018-09-21T18:47:00.465Z,13.70
2018-09-21T18:49:28.922Z,13.70
2018-09-21T18:51:57.406Z,13.80
2018-09-21T18:54:25.878Z,13.60
2018-09-21T18:56:54.339Z,13.70
2018-09-21T18:59:22.817Z,13.70
2018-09-21T19:01:51.278Z,13.70
2018-09-21T19:04:19.734Z,13.70
2018-09-21T19:06:48.181Z,13.80
2018-09-21T19:09:16.650Z,13.70
2018-09-21T19:11:45.118Z,13.70
2018-09-21T19:14:13.554Z,13.70
2018-09-21T19:16:42.045Z,13.60
2018-09-21T19:19:10.516Z,13.60
2018-09-21T19:21:38.946Z,13.80
2018-09-21T19:24:07.431Z,13.70
2018-09-21T19:26:35.926Z,13.60
2018-09-21T19:29:04.411Z,13.60
2018-09-21T19:31:32.860Z,13.60
2018-09-21T19:34:01.306Z,13.50
2018-09-21T19:36:29.756Z,13.60
2018-09-21T19:38:58.663Z,13.50
2018-09-21T19:41:27.226Z,13.50
2018-09-21T19:43:55.725Z,13.50
2018-09-21T19:46:24.201Z,13.50
2018-09-21T19:48:52.659Z,13.60
2018-09-21T19:51:21.290Z,13.50
2018-09-21T19:53:49.850Z,13.50
2018-09-21T19:56:18.419Z,13.60
2018-09-21T19:58:46.885Z,13.50
2018-09-21T20:01:15.342Z,13.60
2018-09-21T20:03:43.784Z,13.50
2018-09-21T20:06:12.317Z,13.40
2018-09-21T20:08:41.217Z,13.50
2018-09-21T20:11:09.711Z,13.50
2018-09-21T20:13:38.366Z,13.60
2018-09-21T20:16:07.048Z,13.50
2018-09-21T20:18:35.526Z,13.50
2018-09-21T20:21:04.629Z,13.40
2018-09-21T20:23:33.057Z,13.40
2018-09-21T20:26:01.494Z,13.50
2018-09-21T20:28:29.964Z,13.50
2018-09-21T20:31:03.886Z,13.50
2018-09-21T20:33:33.559Z,13.50
2018-09-21T20:36:02.018Z,13.50
2018-09-21T20:38:30.461Z,13.40
2018-09-21T20:40:58.926Z,13.50
2018-09-21T20:43:27.397Z,13.50
2018-09-21T20:45:56.115Z,13.40
2018-09-21T20:48:25.190Z,13.50
2018-09-21T20:50:53.650Z,13.50
2018-09-21T20:53:22.731Z,13.60
2018-09-21T20:55:51.206Z,13.60
2018-09-21T20:58:19.633Z,13.40
2018-09-21T21:00:48.110Z,13.50
2018-09-21T21:03:16.556Z,13.60
2018-09-21T21:05:45.060Z,13.60
2018-09-21T21:08:13.538Z,13.70
2018-09-21T21:10:42.197Z,13.70
2018-09-21T21:13:10.759Z,13.80
2018-09-21T21:15:39.193Z,13.70
2018-09-21T21:18:07.685Z,13.80
2018-09-21T21:20:36.200Z,13.70
2018-09-21T21:23:05.235Z,13.70
2018-09-21T21:25:34.865Z,13.70
2018-09-21T21:28:03.297Z,13.60
2018-09-21T21:30:32.010Z,13.70
2018-09-21T21:33:00.457Z,13.70
2018-09-21T21:35:28.954Z,13.60
2018-09-21T21:37:57.413Z,13.60
2018-09-21T21:40:25.842Z,13.60
2018-09-21T21:42:54.320Z,13.70
2018-09-21T21:45:22.749Z,13.70
2018-09-21T21:47:51.203Z,13.70
2018-09-21T21:50:19.652Z,13.70
2018-09-21T21:52:48.079Z,13.70
2018-09-21T21:55:16.557Z,13.60
2018-09-21T21:57:45.343Z,13.60
2018-09-21T22:00:13.839Z,13.70
2018-09-21T22:02:42.353Z,13.70
2018-09-21T22:05:13.974Z,13.50
2018-09-21T22:07:42.432Z,13.60
2018-09-21T22:10:10.871Z,13.70
2018-09-21T22:12:44.542Z,13.60
2018-09-21T22:15:19.778Z,13.50
2018-09-21T22:17:49.595Z,13.50
2018-09-21T22:20:18.270Z,13.50
2018-09-21T22:22:46.851Z,13.50
2018-09-21T22:25:15.492Z,13.50
2018-09-21T22:27:43.927Z,13.50
2018-09-21T22:30:12.410Z,13.60
2018-09-21T22:32:40.933Z,13.70
2018-09-21T22:35:09.430Z,13.70
2018-09-21T22:37:37.862Z,13.50
2018-09-21T22:40:06.750Z,13.60
2018-09-21T22:42:35.197Z,13.40
2018-09-21T22:45:03.847Z,13.50
2018-09-21T22:47:32.296Z,13.50
2018-09-21T22:50:00.735Z,13.50
2018-09-21T22:52:29.216Z,13.60
2018-09-21T22:54:57.637Z,13.60
2018-09-21T22:57:26.306Z,13.60
2018-09-21T22:59:54.761Z,13.50
2018-09-21T23:02:23.334Z,13.40
2018-09-21T23:04:52.119Z,13.40
2018-09-21T23:07:20.541Z,13.30
2018-09-21T23:09:48.972Z,13.30
2018-09-21T23:12:17.425Z,13.20
2018-09-21T23:14:45.889Z,13.40
2018-09-21T23:17:14.353Z,13.30
2018-09-21T23:19:42.769Z,13.40
2018-09-21T23:22:11.189Z,13.40
2018-09-21T23:24:39.634Z,13.40
2018-09-21T23:27:08.139Z,13.20
2018-09-21T23:29:36.586Z,13.20
2018-09-21T23:32:05.043Z,13.10
2018-09-21T23:34:33.753Z,13.00
2018-09-21T23:37:02.500Z,13.00
2018-09-21T23:39:30.949Z,13.00
2018-09-21T23:41:59.612Z,13.00
2018-09-21T23:44:28.058Z,13.00
2018-09-21T23:46:56.494Z,13.00
2018-09-21T23:49:24.924Z,12.90
2018-09-21T23:51:53.370Z,12.90
2018-09-21T23:54:21.818Z,12.90
2018-09-21T23:56:50.264Z,13.00
2018-09-21T23:59:18.705Z,12.90
